createdAt,value
2022-12-01T00:01:31.206Z,12.73
2022-12-01T00:03:59.003Z,12.43
2022-12-01T00:06:29.873Z,12.50
2022-12-01T00:09:19.549Z,13.83
2022-12-01T00:11:47.763Z,12.93
2022-12-01T00:14:16.593Z,13.20
2022-12-01T00:16:48.247Z,13.33
2022-12-01T00:19:16.040Z,12.77
2022-12-01T00:21:46.801Z,13.47
2022-12-01T00:24:14.926Z,12.83
2022-12-01T00:26:42.674Z,12.97
2022-12-01T00:29:13.540Z,12.63
2022-12-01T00:31:41.367Z,12.23
2022-12-01T00:34:22.637Z,12.13
2022-12-01T00:36:50.669Z,12.20
2022-12-01T00:39:18.415Z,12.20
2022-12-01T00:41:46.216Z,11.67
2022-12-01T00:44:13.981Z,11.80
2022-12-01T00:46:41.827Z,11.77
2022-12-01T00:49:13.759Z,9.87
2022-12-01T00:51:41.537Z,10.53
2022-12-01T00:54:09.394Z,10.67
2022-12-01T00:56:37.272Z,10.77
2022-12-01T00:59:04.962Z,10.23
2022-12-01T01:01:32.747Z,10.23
2022-12-01T01:04:00.723Z,10.23
2022-12-01T01:06:29.775Z,10.40
2022-12-01T01:08:57.490Z,9.80
2022-12-01T01:11:26.379Z,10.00
2022-12-01T01:13:54.120Z,9.60
2022-12-01T01:16:23.104Z,9.67
2022-12-01T01:18:51.039Z,10.47
2022-12-01T01:21:21.123Z,9.77
2022-12-01T01:23:51.176Z,9.80
2022-12-01T01:26:20.918Z,9.20
2022-12-01T01:28:49.858Z,9.53
2022-12-01T01:31:20.569Z,10.50
2022-12-01T01:33:48.870Z,10.30
2022-12-01T01:36:18.691Z,10.93
2022-12-01T01:38:47.084Z,9.83
2022-12-01T01:41:16.187Z,10.03
2022-12-01T01:43:46.749Z,11.03
2022-12-01T01:46:17.041Z,11.63
2022-12-01T01:48:48.960Z,9.67
2022-12-01T01:51:19.648Z,10.60
2022-12-01T01:53:50.881Z,9.47
2022-12-01T01:56:20.371Z,10.40
2022-12-01T01:58:48.511Z,11.43
2022-12-01T02:01:16.312Z,10.00
2022-12-01T02:03:46.376Z,10.57
2022-12-01T02:06:14.102Z,10.10
2022-12-01T02:08:41.959Z,9.93
2022-12-01T02:11:48.356Z,10.50
2022-12-01T02:14:42.525Z,10.90
2022-12-01T02:17:18.514Z,9.93
2022-12-01T02:20:05.277Z,10.50
2022-12-01T02:22:53.692Z,11.77
2022-12-01T02:25:34.571Z,10.23
2022-12-01T02:28:30.943Z,11.77
2022-12-01T02:31:03.283Z,11.30
2022-12-01T02:33:39.778Z,10.90
2022-12-01T02:36:16.742Z,12.27
2022-12-01T02:38:52.735Z,12.00
2022-12-01T02:41:26.516Z,12.37
2022-12-01T02:44:00.944Z,12.37
2022-12-01T02:46:35.158Z,12.87
2022-12-01T02:49:09.023Z,11.93
2022-12-01T02:51:40.234Z,13.07
2022-12-01T02:54:11.846Z,11.73
2022-12-01T02:56:39.560Z,13.27
2022-12-01T02:59:10.904Z,13.23
2022-12-01T03:01:54.545Z,13.23
2022-12-01T03:04:47.289Z,12.73
2022-12-01T03:07:33.278Z,13.93
2022-12-01T03:10:13.188Z,13.37
2022-12-01T03:12:51.974Z,12.73
2022-12-01T03:15:31.728Z,13.10
2022-12-01T03:18:07.821Z,14.70
2022-12-01T03:20:41.928Z,13.63
2022-12-01T03:23:14.012Z,13.37
2022-12-01T03:25:45.275Z,13.73
2022-12-01T03:28:23.045Z,14.60
2022-12-01T03:30:56.627Z,13.57
2022-12-01T03:33:30.773Z,13.63
2022-12-01T03:36:04.297Z,13.40
2022-12-01T03:38:33.543Z,13.77
2022-12-01T03:41:06.694Z,15.20
2022-12-01T03:43:40.407Z,13.40
2022-12-01T03:46:13.417Z,13.90
2022-12-01T03:48:43.321Z,12.57
2022-12-01T03:51:17.078Z,14.50
2022-12-01T03:53:54.077Z,15.30
2022-12-01T03:56:25.690Z,15.10
2022-12-01T03:58:57.343Z,15.60
2022-12-01T04:01:26.549Z,16.87
2022-12-01T04:03:55.718Z,15.30
2022-12-01T04:06:23.416Z,16.73
2022-12-01T04:08:51.141Z,15.90
2022-12-01T04:11:36.195Z,16.23
2022-12-01T04:14:03.928Z,15.10
2022-12-01T04:16:31.597Z,16.00
2022-12-01T04:19:00.644Z,16.90
2022-12-01T04:21:28.323Z,17.40
2022-12-01T04:24:02.065Z,16.43
2022-12-01T04:26:30.888Z,16.03
2022-12-01T04:28:59.102Z,15.47
2022-12-01T04:31:26.918Z,15.07
2022-12-01T04:33:55.857Z,14.30
2022-12-01T04:36:25.241Z,14.77
2022-12-01T04:38:53.395Z,13.67
2022-12-01T04:41:21.226Z,13.27
2022-12-01T04:43:49.245Z,13.37
2022-12-01T04:46:16.983Z,13.43
2022-12-01T04:48:44.691Z,13.50
2022-12-01T04:51:12.420Z,14.60
2022-12-01T04:53:41.576Z,12.67
2022-12-01T04:56:09.300Z,13.40
2022-12-01T04:58:38.485Z,13.80
2022-12-01T05:01:07.952Z,13.87
2022-12-01T05:03:38.432Z,14.07
2022-12-01T05:06:08.614Z,14.77
2022-12-01T05:08:36.533Z,15.77
2022-12-01T05:11:07.629Z,15.27
2022-12-01T05:13:35.639Z,16.50
2022-12-01T05:16:08.143Z,17.47
2022-12-01T05:18:36.074Z,16.23
2022-12-01T05:21:04.224Z,16.67
2022-12-01T05:23:34.334Z,15.60
2022-12-01T05:26:02.659Z,14.07
2022-12-01T05:28:32.299Z,14.40
2022-12-01T05:31:03.415Z,13.37
2022-12-01T05:33:32.298Z,13.40
2022-12-01T05:36:00.131Z,12.17
2022-12-01T05:38:27.845Z,13.43
2022-12-01T05:40:56.647Z,13.07
2022-12-01T05:43:29.013Z,12.93
2022-12-01T05:45:59.077Z,12.83
2022-12-01T05:48:26.958Z,12.50
2022-12-01T05:50:54.788Z,12.67
2022-12-01T05:53:22.980Z,11.67
2022-12-01T05:55:54.151Z,12.17
2022-12-01T05:58:21.887Z,12.53
2022-12-01T06:00:49.579Z,11.63
2022-12-01T06:03:18.617Z,11.40
2022-12-01T06:05:46.305Z,10.83
2022-12-01T06:08:14.056Z,13.13
2022-12-01T06:10:41.765Z,12.70
2022-12-01T06:13:09.706Z,12.03
2022-12-01T06:15:37.510Z,12.80
2022-12-01T06:18:05.471Z,12.47
2022-12-01T06:20:34.577Z,12.57
2022-12-01T06:23:02.300Z,13.23
2022-12-01T06:25:30.003Z,11.57
2022-12-01T06:27:58.302Z,11.97
2022-12-01T06:30:26.856Z,13.30
2022-12-01T06:32:54.587Z,12.37
2022-12-01T06:35:22.278Z,11.73
2022-12-01T06:37:53.676Z,12.53
2022-12-01T06:40:22.200Z,12.83
2022-12-01T06:42:49.960Z,13.93
2022-12-01T06:45:17.933Z,13.17
2022-12-01T06:47:48.018Z,13.47
2022-12-01T06:50:15.871Z,12.80
2022-12-01T06:52:43.545Z,13.00
2022-12-01T06:55:12.625Z,13.17
2022-12-01T06:57:40.610Z,12.50
2022-12-01T07:00:09.824Z,13.93
2022-12-01T07:02:39.096Z,13.67
2022-12-01T07:05:07.720Z,12.23
2022-12-01T07:07:37.274Z,12.97
2022-12-01T07:10:05.404Z,12.43
2022-12-01T07:12:34.537Z,13.47
2022-12-01T07:15:02.781Z,11.90
2022-12-01T07:17:30.732Z,12.67
2022-12-01T07:19:58.926Z,12.80
2022-12-01T07:22:32.280Z,13.90
2022-12-01T07:25:00.435Z,12.53
2022-12-01T07:27:30.883Z,13.47
2022-12-01T07:29:59.889Z,12.70
2022-12-01T07:32:27.509Z,12.37
2022-12-01T07:34:55.196Z,12.87
2022-12-01T07:37:22.956Z,13.40
2022-12-01T07:39:53.201Z,13.90
2022-12-01T07:42:21.024Z,12.57
2022-12-01T07:44:48.725Z,12.40
2022-12-01T07:47:17.803Z,13.37
2022-12-01T07:49:47.734Z,13.30
2022-12-01T07:52:15.716Z,13.50
2022-12-01T07:54:43.410Z,13.13
2022-12-01T07:57:14.395Z,13.07
2022-12-01T07:59:42.240Z,13.90
2022-12-01T08:02:11.114Z,13.23
2022-12-01T08:04:40.394Z,14.07
2022-12-01T08:07:08.199Z,13.27
2022-12-01T08:09:35.904Z,13.20
2022-12-01T08:12:03.648Z,13.30
2022-12-01T08:14:31.462Z,12.97
2022-12-01T08:16:59.135Z,13.53
2022-12-01T08:19:27.789Z,13.03
2022-12-01T08:21:57.000Z,12.90
2022-12-01T08:24:25.598Z,14.20
2022-12-01T08:26:53.390Z,14.40
2022-12-01T08:29:21.107Z,13.83
2022-12-01T08:31:48.807Z,13.10
2022-12-01T08:34:16.881Z,13.33
2022-12-01T08:36:44.568Z,14.80
2022-12-01T08:39:13.895Z,14.60
2022-12-01T08:41:41.607Z,15.60
2022-12-01T08:44:10.628Z,14.73
2022-12-01T08:46:38.820Z,14.30
2022-12-01T08:49:07.748Z,15.13
2022-12-01T08:51:36.324Z,15.07
2022-12-01T08:54:06.659Z,14.80
2022-12-01T08:56:38.351Z,14.10
2022-12-01T08:59:06.386Z,14.40
2022-12-01T09:01:34.611Z,14.43
2022-12-01T09:04:08.260Z,14.67
2022-12-01T09:06:40.527Z,12.63
2022-12-01T09:09:08.731Z,14.90
2022-12-01T09:11:38.032Z,13.43
2022-12-01T09:14:05.867Z,14.60
2022-12-01T09:16:34.716Z,13.47
2022-12-01T09:19:03.090Z,13.30
2022-12-01T09:21:32.523Z,13.57
2022-12-01T09:24:01.201Z,13.30
2022-12-01T09:26:29.826Z,13.13
2022-12-01T09:29:00.508Z,14.70
2022-12-01T09:31:28.395Z,13.93
2022-12-01T09:33:57.406Z,13.27
2022-12-01T09:36:25.643Z,12.37
2022-12-01T09:38:53.722Z,11.90
2022-12-01T09:41:24.146Z,13.57
2022-12-01T09:43:57.238Z,12.67
2022-12-01T09:46:31.672Z,12.57
2022-12-01T09:49:02.652Z,12.07
2022-12-01T09:51:34.814Z,11.80
2022-12-01T09:54:03.276Z,13.20
2022-12-01T09:56:33.141Z,12.43
2022-12-01T09:59:03.369Z,12.93
2022-12-01T10:01:37.649Z,12.63
2022-12-01T10:04:13.018Z,12.57
2022-12-01T10:06:46.251Z,13.27
2022-12-01T10:09:23.407Z,11.43
2022-12-01T10:11:55.848Z,11.50
2022-12-01T10:14:23.598Z,12.30
2022-12-01T10:17:03.551Z,11.53
2022-12-01T10:19:38.429Z,12.33
2022-12-01T10:22:20.565Z,12.93
2022-12-01T10:24:55.547Z,12.50
2022-12-01T10:27:39.617Z,12.60
2022-12-01T10:30:11.380Z,12.87
2022-12-01T10:32:52.267Z,13.27
2022-12-01T10:35:22.574Z,12.73
2022-12-01T10:37:55.184Z,12.50
2022-12-01T10:40:23.947Z,10.90
2022-12-01T10:42:52.099Z,11.23
2022-12-01T10:45:24.095Z,10.53
2022-12-01T10:48:15.409Z,9.50
2022-12-01T10:50:44.891Z,10.13
2022-12-01T10:53:31.638Z,10.03
2022-12-01T10:56:11.295Z,10.33
2022-12-01T10:58:47.857Z,10.77
2022-12-01T11:01:24.235Z,10.13
2022-12-01T11:03:57.875Z,10.40
2022-12-01T11:06:30.142Z,9.03
2022-12-01T11:09:00.194Z,9.40
2022-12-01T11:11:32.321Z,10.23
2022-12-01T11:14:02.651Z,10.00
2022-12-01T11:16:40.442Z,9.63
2022-12-01T11:19:26.936Z,10.47
2022-12-01T11:21:56.930Z,9.33
2022-12-01T11:24:34.644Z,10.03
2022-12-01T11:27:02.703Z,10.53
2022-12-01T11:29:36.760Z,9.27
2022-12-01T11:32:17.781Z,9.93
2022-12-01T11:34:52.317Z,9.77
2022-12-01T11:37:24.097Z,9.83
2022-12-01T11:39:53.241Z,10.60
2022-12-01T11:42:27.228Z,9.80
2022-12-01T11:44:57.811Z,10.40
2022-12-01T11:47:27.840Z,10.10
2022-12-01T11:49:58.819Z,10.93
2022-12-01T11:52:30.081Z,10.67
2022-12-01T11:55:09.714Z,10.70
2022-12-01T11:57:40.403Z,10.73
2022-12-01T12:00:15.163Z,9.37
2022-12-01T12:02:54.978Z,9.27
2022-12-01T12:05:45.365Z,9.37
2022-12-01T12:08:25.351Z,10.30
2022-12-01T12:11:01.689Z,10.40
2022-12-01T12:14:03.963Z,10.83
2022-12-01T12:16:46.205Z,10.47
2022-12-01T12:20:00.053Z,11.30
2022-12-01T12:22:35.779Z,10.50
2022-12-01T12:25:21.584Z,10.30
2022-12-01T12:28:00.469Z,10.60
2022-12-01T12:30:30.677Z,10.80
2022-12-01T12:33:29.790Z,10.83
2022-12-01T12:36:08.583Z,9.93
2022-12-01T12:38:50.067Z,10.00
2022-12-01T12:41:29.536Z,10.93
2022-12-01T12:44:11.806Z,10.33
2022-12-01T12:46:50.097Z,9.43
2022-12-01T12:49:37.350Z,10.43
2022-12-01T12:52:09.173Z,10.67
2022-12-01T12:54:46.342Z,10.30
2022-12-01T12:57:21.849Z,10.07
2022-12-01T12:59:54.507Z,9.93
2022-12-01T13:02:28.221Z,10.17
2022-12-01T13:05:04.089Z,9.40
2022-12-01T13:07:38.889Z,9.40
2022-12-01T13:10:17.408Z,10.00
2022-12-01T13:12:54.464Z,10.73
2022-12-01T13:15:23.250Z,10.13
2022-12-01T13:17:54.676Z,11.13
2022-12-01T13:20:27.643Z,10.77
2022-12-01T13:22:56.983Z,10.90
2022-12-01T13:25:30.770Z,12.80
2022-12-01T13:28:01.473Z,10.60
2022-12-01T13:30:29.346Z,11.90
2022-12-01T13:33:03.070Z,12.10
2022-12-01T13:35:33.195Z,12.10
2022-12-01T13:38:21.888Z,12.00
2022-12-01T13:41:10.569Z,11.57
2022-12-01T13:43:47.318Z,11.73
2022-12-01T13:46:22.167Z,11.73
2022-12-01T13:48:55.211Z,12.50
2022-12-01T13:51:22.996Z,12.87
2022-12-01T13:53:58.365Z,12.10
2022-12-01T13:56:59.392Z,13.77
2022-12-01T14:00:07.726Z,12.73
2022-12-01T14:02:37.466Z,13.80
2022-12-01T14:05:42.895Z,12.50
2022-12-01T14:08:22.604Z,13.50
2022-12-01T14:10:55.632Z,14.20
2022-12-01T14:13:24.911Z,14.03
2022-12-01T14:15:58.856Z,13.57
2022-12-01T14:18:38.502Z,14.97
2022-12-01T14:21:09.421Z,15.73
2022-12-01T14:23:39.648Z,15.73
2022-12-01T14:26:17.081Z,15.67
2022-12-01T14:29:21.134Z,15.57
2022-12-01T14:32:25.580Z,14.37
2022-12-01T14:35:06.117Z,14.93
2022-12-01T14:37:42.905Z,15.53
2022-12-01T14:40:18.303Z,15.87
2022-12-01T14:43:08.552Z,15.90
2022-12-01T14:45:42.677Z,15.23
2022-12-01T14:48:14.169Z,16.77
2022-12-01T14:50:49.185Z,16.03
2022-12-01T14:53:24.225Z,16.10
2022-12-01T14:55:57.312Z,16.40
2022-12-01T14:58:29.808Z,16.83
2022-12-01T15:01:07.422Z,17.07
2022-12-01T15:03:42.534Z,17.67
2022-12-01T15:06:16.969Z,16.87
2022-12-01T15:08:58.268Z,15.57
2022-12-01T15:11:33.242Z,15.53
2022-12-01T15:14:01.092Z,15.27
2022-12-01T15:16:31.984Z,15.77
2022-12-01T15:19:01.013Z,16.47
2022-12-01T15:21:32.434Z,15.87
2022-12-01T15:24:02.302Z,16.13
2022-12-01T15:26:32.935Z,16.70
2022-12-01T15:29:23.759Z,16.00
2022-12-01T15:31:53.358Z,16.00
2022-12-01T15:34:23.338Z,17.07
2022-12-01T15:36:53.182Z,17.37
2022-12-01T15:39:24.324Z,16.23
2022-12-01T15:41:54.202Z,17.27
2022-12-01T15:44:26.837Z,16.87
2022-12-01T15:46:54.526Z,16.57
2022-12-01T15:49:27.619Z,16.93
2022-12-01T15:52:05.675Z,17.93
2022-12-01T15:54:34.236Z,16.97
2022-12-01T15:57:03.369Z,16.20
2022-12-01T15:59:38.646Z,15.67
2022-12-01T16:02:12.181Z,16.83
2022-12-01T16:04:39.946Z,17.13
2022-12-01T16:07:11.246Z,16.23
2022-12-01T16:09:40.828Z,15.63
2022-12-01T16:12:24.003Z,15.70
2022-12-01T16:14:57.791Z,16.93
2022-12-01T16:17:26.218Z,16.40
2022-12-01T16:20:16.963Z,16.23
2022-12-01T16:22:47.426Z,16.10
2022-12-01T16:25:20.301Z,17.00
2022-12-01T16:27:53.023Z,16.03
2022-12-01T16:30:23.120Z,15.83
2022-12-01T16:32:51.091Z,14.80
2022-12-01T16:35:33.797Z,15.23
2022-12-01T16:38:11.801Z,15.80
2022-12-01T16:40:42.060Z,15.93
2022-12-01T16:43:14.888Z,15.90
2022-12-01T16:45:42.696Z,16.17
2022-12-01T16:48:10.681Z,15.93
2022-12-01T16:50:39.284Z,16.17
2022-12-01T16:53:08.597Z,16.33
2022-12-01T16:55:40.985Z,16.77
2022-12-01T16:58:08.790Z,16.77
2022-12-01T17:00:36.629Z,16.23
2022-12-01T17:03:05.744Z,17.33
2022-12-01T17:05:33.921Z,16.53
2022-12-01T17:08:01.689Z,15.97
2022-12-01T17:10:30.897Z,16.37
2022-12-01T17:12:58.648Z,15.40
2022-12-01T17:15:26.601Z,16.90
2022-12-01T17:17:54.662Z,17.47
2022-12-01T17:20:22.673Z,16.60
2022-12-01T17:22:50.432Z,15.03
2022-12-01T17:25:18.383Z,16.17
2022-12-01T17:27:47.472Z,15.93
2022-12-01T17:30:15.499Z,14.87
2022-12-01T17:32:43.198Z,15.50
2022-12-01T17:35:11.302Z,15.43
2022-12-01T17:37:39.051Z,15.00
2022-12-01T17:40:09.070Z,15.20
2022-12-01T17:42:37.286Z,15.10
2022-12-01T17:45:07.706Z,15.30
2022-12-01T17:47:35.563Z,17.50
2022-12-01T17:50:03.493Z,16.47
2022-12-01T17:52:31.229Z,15.67
2022-12-01T17:54:59.083Z,14.60
2022-12-01T17:57:26.876Z,15.30
2022-12-01T17:59:54.602Z,15.17
2022-12-01T18:02:23.818Z,14.47
2022-12-01T18:04:51.905Z,15.93
2022-12-01T18:07:19.807Z,16.30
2022-12-01T18:09:47.565Z,15.73
2022-12-01T18:12:15.299Z,16.83
2022-12-01T18:14:43.051Z,16.57
2022-12-01T18:17:10.867Z,15.60
2022-12-01T18:19:40.524Z,15.77
2022-12-01T18:22:08.290Z,15.97
2022-12-01T18:24:36.164Z,15.20
2022-12-01T18:27:03.942Z,15.60
2022-12-01T18:29:31.681Z,16.03
2022-12-01T18:32:01.210Z,15.17
2022-12-01T18:34:30.448Z,15.33
2022-12-01T18:36:59.704Z,15.33
2022-12-01T18:39:27.411Z,16.13
2022-12-01T18:41:55.409Z,16.00
2022-12-01T18:44:23.157Z,16.70
2022-12-01T18:46:51.052Z,16.17
2022-12-01T18:49:19.187Z,15.33
2022-12-01T18:51:46.905Z,16.03
2022-12-01T18:54:17.499Z,16.20
2022-12-01T18:56:45.244Z,15.47
2022-12-01T18:59:18.536Z,15.23
2022-12-01T19:01:49.239Z,16.33
2022-12-01T19:04:17.597Z,16.33
2022-12-01T19:06:46.792Z,16.13
2022-12-01T19:09:17.602Z,15.30
2022-12-01T19:11:48.525Z,15.73
2022-12-01T19:14:18.487Z,15.73
2022-12-01T19:16:46.836Z,15.17
2022-12-01T19:19:15.112Z,16.63
2022-12-01T19:21:47.686Z,15.63
2022-12-01T19:24:21.631Z,15.50
2022-12-01T19:26:49.591Z,16.17
2022-12-01T19:29:17.413Z,16.00
2022-12-01T19:31:45.159Z,16.23
2022-12-01T19:34:15.782Z,18.00
2022-12-01T19:36:43.533Z,17.23
2022-12-01T19:39:11.507Z,16.90
2022-12-01T19:41:41.211Z,17.03
2022-12-01T19:44:11.919Z,17.53
2022-12-01T19:46:39.806Z,16.30
2022-12-01T19:49:07.801Z,15.57
2022-12-01T19:51:37.385Z,17.00
2022-12-01T19:54:08.772Z,16.43
2022-12-01T19:56:38.345Z,17.63
2022-12-01T19:59:08.173Z,17.30
2022-12-01T20:01:36.015Z,18.70
2022-12-01T20:04:07.675Z,17.63
2022-12-01T20:06:37.395Z,16.80
2022-12-01T20:09:07.170Z,18.27
2022-12-01T20:11:36.256Z,17.10
2022-12-01T20:14:05.642Z,15.53
2022-12-01T20:16:35.089Z,16.87
2022-12-01T20:19:05.016Z,16.47
2022-12-01T20:21:35.216Z,17.60
2022-12-01T20:24:04.938Z,18.03
2022-12-01T20:26:36.928Z,18.07
2022-12-01T20:29:09.254Z,16.03
2022-12-01T20:31:39.576Z,18.03
2022-12-01T20:34:09.991Z,17.97
2022-12-01T20:36:38.116Z,17.43
2022-12-01T20:39:06.809Z,23.65
2022-12-01T20:41:35.317Z,18.20
2022-12-01T20:44:07.259Z,17.80
2022-12-01T20:46:41.032Z,18.47
2022-12-01T20:49:09.326Z,17.97
2022-12-01T20:51:45.801Z,17.70
2022-12-01T20:54:28.405Z,17.90
2022-12-01T20:56:57.807Z,18.13
2022-12-01T20:59:25.852Z,17.17
2022-12-01T21:01:55.298Z,16.43
2022-12-01T21:04:23.097Z,16.30
2022-12-01T21:06:51.038Z,16.73
2022-12-01T21:09:21.590Z,16.47
2022-12-01T21:12:08.984Z,16.53
2022-12-01T21:14:38.723Z,15.80
2022-12-01T21:17:17.329Z,16.77
2022-12-01T21:19:51.063Z,16.43
2022-12-01T21:22:20.141Z,16.77
2022-12-01T21:24:51.679Z,17.50
2022-12-01T21:27:19.922Z,16.70
2022-12-01T21:29:50.715Z,17.23
2022-12-01T21:32:25.138Z,16.47
2022-12-01T21:34:54.117Z,15.77
2022-12-01T21:37:23.636Z,15.77
2022-12-01T21:39:52.921Z,17.13
2022-12-01T21:42:22.494Z,16.97
2022-12-01T21:44:50.884Z,15.70
2022-12-01T21:47:21.903Z,16.73
2022-12-01T21:49:53.292Z,16.33
2022-12-01T21:52:23.565Z,17.27
2022-12-01T21:54:52.307Z,17.13
2022-12-01T21:57:30.459Z,16.33
2022-12-01T22:00:10.685Z,17.63
2022-12-01T22:02:50.043Z,16.83
2022-12-01T22:05:27.826Z,17.27
2022-12-01T22:08:00.771Z,17.03
2022-12-01T22:10:55.534Z,18.43
2022-12-01T22:13:25.426Z,17.63
2022-12-01T22:15:55.205Z,17.87
2022-12-01T22:18:27.346Z,16.20
2022-12-01T22:20:55.528Z,16.17
2022-12-01T22:23:29.613Z,16.27
2022-12-01T22:25:57.392Z,17.13
2022-12-01T22:28:25.837Z,17.37
2022-12-01T22:30:54.087Z,16.83
2022-12-01T22:33:24.707Z,17.20
2022-12-01T22:35:53.797Z,17.60
2022-12-01T22:38:30.430Z,16.90
2022-12-01T22:41:01.702Z,16.07
2022-12-01T22:43:39.603Z,17.50
2022-12-01T22:46:22.563Z,18.93
2022-12-01T22:48:53.369Z,17.40
2022-12-01T22:51:30.430Z,16.90
2022-12-01T22:54:23.484Z,17.27
2022-12-01T22:56:55.024Z,16.00
2022-12-01T22:59:24.988Z,16.77
2022-12-01T23:01:54.934Z,17.20
2022-12-01T23:04:27.624Z,17.63
2022-12-01T23:06:59.856Z,17.97
2022-12-01T23:09:32.114Z,17.43
2022-12-01T23:12:05.588Z,17.10
2022-12-01T23:14:34.537Z,17.13
2022-12-01T23:17:08.411Z,17.33
2022-12-01T23:19:37.545Z,17.10
2022-12-01T23:22:05.473Z,15.90
2022-12-01T23:24:34.170Z,17.30
2022-12-01T23:27:02.241Z,17.17
2022-12-01T23:29:31.336Z,17.33
2022-12-01T23:31:59.477Z,17.20
2022-12-01T23:34:27.538Z,16.07
2022-12-01T23:36:57.398Z,17.33
2022-12-01T23:39:31.432Z,16.53
2022-12-01T23:42:00.159Z,15.90
2022-12-01T23:44:40.000Z,16.43
2022-12-01T23:47:16.994Z,16.33
2022-12-01T23:49:46.404Z,16.90
2022-12-01T23:52:20.162Z,17.20
2022-12-01T23:54:49.233Z,16.83
2022-12-01T23:57:22.042Z,16.00
2022-12-01T23:59:51.421Z,15.70
